SAS1408 EKCH-ESSA
Flight info
| Callsign | SAS1408 |
|---|---|
| Flight time | 0h 55m |
| Altitude | 35000 |
| Route | KEMAX N851 ROXEN DCT MIKNA N851 PELUP Z226 NILUG |
| Aircraft | A321/M-SDE3FGHIRWY/LB1 |
Departure
| Time | 2026-04-23 17:10 |
|---|---|
| Airport | Copenhagen Kastrup Airport (EKCH) |
Arrival
| Time | 2026-04-23 18:06 |
|---|---|
| Airport | Stockholm-Arlanda Airport (ESSA) |
| Time | Latitude | Longitude | Altitude | Speed | Heading |
|---|---|---|---|---|---|
| 2026-04-23 16:33 | 55.62722 | 12.65328 | 20 ft | 0 kts | 21° |
| 2026-04-23 17:01 | 55.62705 | 12.65317 | 20 ft | 4 kts | 15° |
| 2026-04-23 17:01 | 55.62687 | 12.65310 | 19 ft | 4 kts | 7° |
| 2026-04-23 17:01 | 55.62652 | 12.65310 | 18 ft | 4 kts | 351° |
| 2026-04-23 17:02 | 55.62634 | 12.65316 | 22 ft | 4 kts | 349° |
| 2026-04-23 17:02 | 55.62618 | 12.65321 | 20 ft | 1 kts | 356° |
| 2026-04-23 17:04 | 55.62631 | 12.65314 | 21 ft | 7 kts | 338° |
| 2026-04-23 17:05 | 55.62636 | 12.65208 | 19 ft | 12 kts | 227° |
| 2026-04-23 17:05 | 55.62557 | 12.65180 | 19 ft | 14 kts | 178° |
| 2026-04-23 17:05 | 55.62456 | 12.65187 | 20 ft | 15 kts | 178° |
| 2026-04-23 17:05 | 55.62356 | 12.65194 | 24 ft | 15 kts | 178° |
| 2026-04-23 17:06 | 55.62252 | 12.65199 | 22 ft | 16 kts | 184° |
| 2026-04-23 17:06 | 55.62143 | 12.65101 | 24 ft | 18 kts | 212° |
| 2026-04-23 17:06 | 55.62027 | 12.64971 | 21 ft | 21 kts | 212° |
| 2026-04-23 17:06 | 55.61897 | 12.64823 | 17 ft | 24 kts | 213° |
| 2026-04-23 17:07 | 55.61763 | 12.64669 | 20 ft | 23 kts | 213° |
| 2026-04-23 17:07 | 55.61630 | 12.64512 | 20 ft | 23 kts | 214° |
| 2026-04-23 17:07 | 55.61490 | 12.64351 | 19 ft | 24 kts | 213° |
| 2026-04-23 17:07 | 55.61343 | 12.64184 | 16 ft | 26 kts | 212° |
| 2026-04-23 17:08 | 55.61192 | 12.64008 | 17 ft | 26 kts | 213° |
| 2026-04-23 17:08 | 55.61044 | 12.63836 | 19 ft | 25 kts | 213° |
| 2026-04-23 17:08 | 55.60900 | 12.63669 | 22 ft | 25 kts | 212° |
| 2026-04-23 17:08 | 55.60752 | 12.63502 | 20 ft | 26 kts | 213° |
| 2026-04-23 17:09 | 55.60605 | 12.63316 | 20 ft | 26 kts | 221° |
| 2026-04-23 17:09 | 55.60475 | 12.63116 | 24 ft | 21 kts | 209° |
| 2026-04-23 17:09 | 55.60380 | 12.63193 | 28 ft | 15 kts | 133° |
| 2026-04-23 17:09 | 55.60343 | 12.63343 | 29 ft | 13 kts | 70° |
| 2026-04-23 17:10 | 55.60483 | 12.63577 | 27 ft | 60 kts | 40° |
| 2026-04-23 17:10 | 55.60985 | 12.64351 | 21 ft | 129 kts | 41° |
| 2026-04-23 17:10 | 55.61776 | 12.65567 | 171 ft | 165 kts | 38° |
| 2026-04-23 17:10 | 55.62642 | 12.66900 | 861 ft | 167 kts | 37° |
| 2026-04-23 17:11 | 55.63532 | 12.68284 | 1539 ft | 173 kts | 37° |
| 2026-04-23 17:11 | 55.64446 | 12.69708 | 2088 ft | 178 kts | 36° |
| 2026-04-23 17:11 | 55.65399 | 12.71176 | 2585 ft | 185 kts | 34° |
| 2026-04-23 17:11 | 55.66407 | 12.72681 | 2976 ft | 197 kts | 34° |
| 2026-04-23 17:12 | 55.67519 | 12.74349 | 3144 ft | 221 kts | 35° |
| 2026-04-23 17:12 | 55.68744 | 12.76215 | 3432 ft | 242 kts | 35° |
| 2026-04-23 17:12 | 55.70059 | 12.78233 | 3913 ft | 256 kts | 36° |
| 2026-04-23 17:12 | 55.71408 | 12.80323 | 4666 ft | 259 kts | 37° |
| 2026-04-23 17:13 | 55.72769 | 12.82449 | 5426 ft | 262 kts | 37° |
| 2026-04-23 17:13 | 55.74145 | 12.84605 | 6195 ft | 265 kts | 37° |
| 2026-04-23 17:13 | 55.75531 | 12.86777 | 6934 ft | 267 kts | 37° |
| 2026-04-23 17:13 | 55.76928 | 12.88968 | 7668 ft | 269 kts | 36° |
| 2026-04-23 17:14 | 55.78339 | 12.91174 | 8402 ft | 271 kts | 36° |
| 2026-04-23 17:14 | 55.79759 | 12.93392 | 9148 ft | 272 kts | 36° |
| 2026-04-23 17:14 | 55.81169 | 12.95594 | 9860 ft | 274 kts | 35° |
| 2026-04-23 17:14 | 55.82620 | 12.97857 | 10354 ft | 285 kts | 35° |
| 2026-04-23 17:15 | 55.84173 | 13.00266 | 10486 ft | 307 kts | 36° |
| 2026-04-23 17:15 | 55.85824 | 13.02839 | 10809 ft | 320 kts | 36° |
| 2026-04-23 17:15 | 55.87505 | 13.05482 | 11366 ft | 324 kts | 36° |
| 2026-04-23 17:15 | 55.89207 | 13.08170 | 11972 ft | 328 kts | 36° |
| 2026-04-23 17:16 | 55.90919 | 13.10878 | 12619 ft | 330 kts | 36° |
| 2026-04-23 17:16 | 55.92646 | 13.13603 | 13222 ft | 333 kts | 36° |
| 2026-04-23 17:16 | 55.94386 | 13.16346 | 13843 ft | 335 kts | 36° |
| 2026-04-23 17:16 | 55.96135 | 13.19114 | 14393 ft | 338 kts | 36° |
| 2026-04-23 17:17 | 55.97899 | 13.21906 | 14919 ft | 340 kts | 36° |
| 2026-04-23 17:17 | 55.99681 | 13.24727 | 15445 ft | 343 kts | 36° |
| 2026-04-23 17:17 | 56.01477 | 13.27576 | 15976 ft | 346 kts | 36° |
| 2026-04-23 17:17 | 56.03288 | 13.30447 | 16510 ft | 349 kts | 37° |
| 2026-04-23 17:18 | 56.06950 | 13.36275 | 17532 ft | 355 kts | 37° |
| 2026-04-23 17:18 | 56.08797 | 13.39231 | 18040 ft | 358 kts | 37° |
| 2026-04-23 17:18 | 56.10659 | 13.42212 | 18521 ft | 361 kts | 37° |
| 2026-04-23 17:19 | 56.12544 | 13.45205 | 18994 ft | 362 kts | 34° |
| 2026-04-23 17:19 | 56.14558 | 13.47901 | 19449 ft | 361 kts | 31° |
| 2026-04-23 17:19 | 56.16600 | 13.50561 | 19883 ft | 364 kts | 31° |
| 2026-04-23 17:19 | 56.18657 | 13.53239 | 20323 ft | 367 kts | 31° |
| 2026-04-23 17:20 | 56.20732 | 13.55947 | 20728 ft | 370 kts | 31° |
| 2026-04-23 17:20 | 56.24921 | 13.61431 | 21547 ft | 375 kts | 31° |
| 2026-04-23 17:21 | 56.29136 | 13.66972 | 22339 ft | 380 kts | 32° |
| 2026-04-23 17:21 | 56.31280 | 13.69802 | 22728 ft | 383 kts | 32° |
| 2026-04-23 17:21 | 56.35607 | 13.75524 | 23523 ft | 388 kts | 32° |
| 2026-04-23 17:22 | 56.37784 | 13.78411 | 23917 ft | 389 kts | 32° |
| 2026-04-23 17:22 | 56.42170 | 13.84223 | 24600 ft | 392 kts | 32° |
| 2026-04-23 17:23 | 56.46592 | 13.90118 | 25291 ft | 396 kts | 32° |
| 2026-04-23 17:23 | 56.48803 | 13.93112 | 25628 ft | 399 kts | 33° |
| 2026-04-23 17:23 | 56.53082 | 13.99540 | 26277 ft | 404 kts | 36° |
| 2026-04-23 17:24 | 56.55200 | 14.02922 | 26639 ft | 406 kts | 36° |
| 2026-04-23 17:24 | 56.57307 | 14.06320 | 27011 ft | 406 kts | 36° |
| 2026-04-23 17:24 | 56.61561 | 14.13114 | 27710 ft | 408 kts | 35° |
| 2026-04-23 17:25 | 56.65873 | 14.19887 | 28337 ft | 411 kts | 35° |
| 2026-04-23 17:25 | 56.68048 | 14.23298 | 28630 ft | 413 kts | 35° |
| 2026-04-23 17:26 | 56.72424 | 14.30184 | 29208 ft | 417 kts | 35° |
| 2026-04-23 17:26 | 56.76831 | 14.37148 | 29775 ft | 421 kts | 35° |
| 2026-04-23 17:27 | 56.81255 | 14.44145 | 30283 ft | 425 kts | 35° |
| 2026-04-23 17:27 | 56.83490 | 14.47696 | 30587 ft | 425 kts | 35° |
| 2026-04-23 17:27 | 56.85721 | 14.51252 | 30795 ft | 426 kts | 35° |
| 2026-04-23 17:27 | 56.87960 | 14.54832 | 31019 ft | 428 kts | 35° |
| 2026-04-23 17:28 | 56.90199 | 14.58424 | 31294 ft | 427 kts | 35° |
| 2026-04-23 17:28 | 56.92430 | 14.62007 | 31579 ft | 427 kts | 35° |
| 2026-04-23 17:28 | 56.94663 | 14.65599 | 31846 ft | 426 kts | 35° |
| 2026-04-23 17:28 | 56.96889 | 14.69180 | 32164 ft | 426 kts | 35° |
| 2026-04-23 17:29 | 56.99116 | 14.72764 | 32440 ft | 426 kts | 35° |
| 2026-04-23 17:29 | 57.01353 | 14.76362 | 32708 ft | 425 kts | 35° |
| 2026-04-23 17:29 | 57.05756 | 14.83459 | 33266 ft | 424 kts | 35° |
| 2026-04-23 17:30 | 57.07247 | 14.85874 | 33499 ft | 423 kts | 35° |
| 2026-04-23 17:30 | 57.12365 | 14.94186 | 34159 ft | 421 kts | 35° |
| 2026-04-23 17:30 | 57.14554 | 14.97743 | 34498 ft | 418 kts | 34° |
| 2026-04-23 17:31 | 57.16730 | 15.01291 | 34787 ft | 416 kts | 34° |
| 2026-04-23 17:31 | 57.18893 | 15.04828 | 35005 ft | 416 kts | 35° |
| 2026-04-23 17:31 | 57.23172 | 15.11865 | 35081 ft | 407 kts | 34° |
| 2026-04-23 17:32 | 57.27395 | 15.18806 | 35079 ft | 405 kts | 34° |
| 2026-04-23 17:32 | 57.31568 | 15.25660 | 35079 ft | 403 kts | 34° |
| 2026-04-23 17:33 | 57.35752 | 15.32565 | 35075 ft | 402 kts | 35° |
| 2026-04-23 17:33 | 57.39927 | 15.39487 | 35077 ft | 403 kts | 35° |
| 2026-04-23 17:34 | 57.44099 | 15.46436 | 35078 ft | 403 kts | 35° |
| 2026-04-23 17:35 | 57.50360 | 15.56894 | 35090 ft | 404 kts | 35° |
| 2026-04-23 17:35 | 57.56619 | 15.67401 | 35103 ft | 403 kts | 35° |
| 2026-04-23 17:36 | 57.60755 | 15.74358 | 35094 ft | 402 kts | 35° |
| 2026-04-23 17:36 | 57.64904 | 15.81367 | 35092 ft | 402 kts | 35° |
| 2026-04-23 17:37 | 57.69049 | 15.88397 | 35088 ft | 402 kts | 35° |
| 2026-04-23 17:38 | 57.75219 | 15.98928 | 35071 ft | 397 kts | 35° |
| 2026-04-23 17:38 | 57.79298 | 16.05917 | 35061 ft | 397 kts | 35° |
| 2026-04-23 17:39 | 57.83376 | 16.12906 | 35063 ft | 397 kts | 35° |
| 2026-04-23 17:39 | 57.87465 | 16.19918 | 35018 ft | 398 kts | 35° |
| 2026-04-23 17:39 | 57.89477 | 16.23394 | 34772 ft | 398 kts | 35° |
| 2026-04-23 17:40 | 57.91515 | 16.26930 | 34529 ft | 398 kts | 35° |
| 2026-04-23 17:40 | 57.93552 | 16.30462 | 34290 ft | 398 kts | 35° |
| 2026-04-23 17:40 | 57.95590 | 16.33995 | 34046 ft | 398 kts | 35° |
| 2026-04-23 17:40 | 57.97635 | 16.37535 | 33806 ft | 399 kts | 35° |
| 2026-04-23 17:41 | 57.99672 | 16.41066 | 33537 ft | 397 kts | 35° |
| 2026-04-23 17:41 | 58.03738 | 16.48148 | 32999 ft | 398 kts | 36° |
| 2026-04-23 17:41 | 58.05775 | 16.51707 | 32721 ft | 398 kts | 36° |
| 2026-04-23 17:42 | 58.09821 | 16.58798 | 32210 ft | 400 kts | 36° |
| 2026-04-23 17:42 | 58.11855 | 16.62372 | 31941 ft | 397 kts | 37° |
| 2026-04-23 17:42 | 58.13862 | 16.65911 | 31480 ft | 392 kts | 37° |
| 2026-04-23 17:43 | 58.15844 | 16.69411 | 31020 ft | 387 kts | 37° |
| 2026-04-23 17:43 | 58.17805 | 16.72869 | 30549 ft | 383 kts | 37° |
| 2026-04-23 17:43 | 58.19743 | 16.76288 | 30075 ft | 379 kts | 37° |
| 2026-04-23 17:43 | 58.21655 | 16.79670 | 29588 ft | 374 kts | 38° |
| 2026-04-23 17:44 | 58.23554 | 16.83037 | 29104 ft | 372 kts | 38° |
| 2026-04-23 17:44 | 58.25439 | 16.86388 | 28649 ft | 369 kts | 38° |
| 2026-04-23 17:44 | 58.29146 | 16.92981 | 27738 ft | 365 kts | 38° |
| 2026-04-23 17:45 | 58.31017 | 16.96313 | 27298 ft | 362 kts | 38° |
| 2026-04-23 17:45 | 58.34633 | 17.02781 | 26400 ft | 356 kts | 38° |
| 2026-04-23 17:45 | 58.36430 | 17.06003 | 25962 ft | 354 kts | 38° |
| 2026-04-23 17:46 | 58.39998 | 17.12405 | 25099 ft | 350 kts | 38° |
| 2026-04-23 17:46 | 58.41765 | 17.15583 | 24682 ft | 349 kts | 38° |
| 2026-04-23 17:46 | 58.43527 | 17.18752 | 24269 ft | 347 kts | 38° |
| 2026-04-23 17:47 | 58.44692 | 17.20851 | 24007 ft | 346 kts | 37° |
| 2026-04-23 17:47 | 58.46441 | 17.24012 | 23573 ft | 344 kts | 38° |
| 2026-04-23 17:47 | 58.49894 | 17.30265 | 22760 ft | 340 kts | 38° |
| 2026-04-23 17:48 | 58.51602 | 17.33368 | 22378 ft | 338 kts | 38° |
| 2026-04-23 17:48 | 58.53304 | 17.36465 | 22002 ft | 339 kts | 38° |
| 2026-04-23 17:48 | 58.55053 | 17.39634 | 21608 ft | 351 kts | 38° |
| 2026-04-23 17:48 | 58.56845 | 17.42884 | 21216 ft | 355 kts | 38° |
| 2026-04-23 17:49 | 58.58621 | 17.46123 | 20814 ft | 355 kts | 38° |
| 2026-04-23 17:49 | 58.60403 | 17.49380 | 20398 ft | 353 kts | 38° |
| 2026-04-23 17:49 | 58.62171 | 17.52616 | 19989 ft | 350 kts | 38° |
| 2026-04-23 17:49 | 58.63927 | 17.55838 | 19545 ft | 348 kts | 39° |
| 2026-04-23 17:50 | 58.65672 | 17.59045 | 19138 ft | 346 kts | 39° |
| 2026-04-23 17:50 | 58.69142 | 17.65287 | 18297 ft | 333 kts | 33° |
| 2026-04-23 17:50 | 58.71108 | 17.67310 | 17831 ft | 320 kts | 19° |
| 2026-04-23 17:51 | 58.73198 | 17.68843 | 17347 ft | 315 kts | 18° |
| 2026-04-23 17:51 | 58.75239 | 17.70308 | 16915 ft | 309 kts | 17° |
| 2026-04-23 17:51 | 58.79212 | 17.73177 | 16144 ft | 307 kts | 18° |
| 2026-04-23 17:52 | 58.81211 | 17.74628 | 15761 ft | 307 kts | 18° |
| 2026-04-23 17:52 | 58.85189 | 17.77535 | 14791 ft | 303 kts | 18° |
| 2026-04-23 17:52 | 58.87132 | 17.78972 | 14308 ft | 294 kts | 18° |
| 2026-04-23 17:53 | 58.90845 | 17.81750 | 13360 ft | 281 kts | 18° |
| 2026-04-23 17:53 | 58.92664 | 17.83113 | 12947 ft | 279 kts | 18° |
| 2026-04-23 17:53 | 58.94509 | 17.84490 | 12539 ft | 293 kts | 18° |
| 2026-04-23 17:54 | 58.96430 | 17.85922 | 12092 ft | 296 kts | 18° |
| 2026-04-23 17:54 | 58.98357 | 17.87355 | 11571 ft | 295 kts | 18° |
| 2026-04-23 17:54 | 59.02177 | 17.90170 | 10613 ft | 292 kts | 18° |
| 2026-04-23 17:55 | 59.06015 | 17.91680 | 9782 ft | 281 kts | 355° |
| 2026-04-23 17:55 | 59.07958 | 17.91314 | 9319 ft | 279 kts | 353° |
| 2026-04-23 17:55 | 59.09873 | 17.90900 | 8869 ft | 276 kts | 353° |
| 2026-04-23 17:56 | 59.11773 | 17.90491 | 8516 ft | 271 kts | 353° |
| 2026-04-23 17:56 | 59.15499 | 17.89714 | 7886 ft | 268 kts | 353° |
| 2026-04-23 17:56 | 59.17351 | 17.89340 | 7571 ft | 267 kts | 353° |
| 2026-04-23 17:57 | 59.19193 | 17.88976 | 7272 ft | 265 kts | 353° |
| 2026-04-23 17:57 | 59.21024 | 17.88620 | 6969 ft | 263 kts | 352° |
| 2026-04-23 17:57 | 59.24520 | 17.87966 | 6433 ft | 244 kts | 353° |
| 2026-04-23 17:58 | 59.26192 | 17.87669 | 6170 ft | 238 kts | 353° |
| 2026-04-23 17:58 | 59.27827 | 17.87386 | 5906 ft | 233 kts | 353° |
| 2026-04-23 17:58 | 59.29403 | 17.87118 | 5635 ft | 219 kts | 353° |
| 2026-04-23 17:58 | 59.30908 | 17.86984 | 5377 ft | 214 kts | 356° |
| 2026-04-23 17:59 | 59.32368 | 17.86947 | 5121 ft | 211 kts | 356° |
| 2026-04-23 17:59 | 59.33843 | 17.86931 | 4866 ft | 216 kts | 357° |
| 2026-04-23 17:59 | 59.35363 | 17.86915 | 4624 ft | 220 kts | 357° |
| 2026-04-23 17:59 | 59.36895 | 17.86897 | 4348 ft | 220 kts | 357° |
| 2026-04-23 18:00 | 59.38428 | 17.86878 | 4183 ft | 217 kts | 357° |
| 2026-04-23 18:00 | 59.39897 | 17.86862 | 4071 ft | 208 kts | 358° |
| 2026-04-23 18:00 | 59.41326 | 17.87285 | 4005 ft | 208 kts | 9° |
| 2026-04-23 18:00 | 59.42730 | 17.87869 | 4006 ft | 204 kts | 8° |
| 2026-04-23 18:01 | 59.44124 | 17.88400 | 3851 ft | 203 kts | 7° |
| 2026-04-23 18:01 | 59.45490 | 17.88896 | 3590 ft | 196 kts | 7° |
| 2026-04-23 18:01 | 59.46816 | 17.89373 | 3330 ft | 190 kts | 8° |
| 2026-04-23 18:01 | 59.48102 | 17.89834 | 3075 ft | 186 kts | 8° |
| 2026-04-23 18:02 | 59.49360 | 17.90285 | 2822 ft | 182 kts | 8° |
| 2026-04-23 18:02 | 59.50572 | 17.90721 | 2552 ft | 177 kts | 8° |
| 2026-04-23 18:02 | 59.51772 | 17.91152 | 2325 ft | 173 kts | 8° |
| 2026-04-23 18:02 | 59.52932 | 17.91570 | 2094 ft | 165 kts | 8° |
| 2026-04-23 18:03 | 59.54043 | 17.91970 | 1867 ft | 159 kts | 8° |
| 2026-04-23 18:03 | 59.55098 | 17.92350 | 1663 ft | 152 kts | 8° |
| 2026-04-23 18:03 | 59.56123 | 17.92719 | 1441 ft | 148 kts | 9° |
| 2026-04-23 18:03 | 59.57136 | 17.93085 | 1253 ft | 145 kts | 9° |
| 2026-04-23 18:04 | 59.58084 | 17.93427 | 1051 ft | 138 kts | 9° |
| 2026-04-23 18:04 | 59.59021 | 17.93765 | 871 ft | 137 kts | 8° |
| 2026-04-23 18:04 | 59.59956 | 17.94103 | 704 ft | 136 kts | 7° |
| 2026-04-23 18:04 | 59.60891 | 17.94441 | 530 ft | 137 kts | 6° |
| 2026-04-23 18:05 | 59.61843 | 17.94796 | 356 ft | 141 kts | 7° |
| 2026-04-23 18:05 | 59.62815 | 17.95149 | 182 ft | 141 kts | 7° |
| 2026-04-23 18:05 | 59.63722 | 17.95465 | 115 ft | 116 kts | 10° |
| 2026-04-23 18:05 | 59.64336 | 17.95688 | 112 ft | 62 kts | 11° |
| 2026-04-23 18:06 | 59.64701 | 17.95822 | 107 ft | 39 kts | 11° |
| 2026-04-23 18:06 | 59.64846 | 17.95743 | 106 ft | 22 kts | 295° |
| 2026-04-23 18:06 | 59.64849 | 17.95475 | 106 ft | 13 kts | 224° |
| 2026-04-23 18:06 | 59.64763 | 17.95440 | 106 ft | 18 kts | 192° |
| 2026-04-23 18:07 | 59.64626 | 17.95371 | 104 ft | 22 kts | 206° |
| 2026-04-23 18:07 | 59.64525 | 17.95152 | 105 ft | 22 kts | 238° |
| 2026-04-23 18:07 | 59.64438 | 17.94878 | 103 ft | 26 kts | 237° |
| 2026-04-23 18:07 | 59.64338 | 17.94568 | 103 ft | 27 kts | 237° |
| 2026-04-23 18:08 | 59.64271 | 17.94356 | 103 ft | 28 kts | 238° |
| 2026-04-23 18:08 | 59.64137 | 17.93938 | 109 ft | 26 kts | 237° |
| 2026-04-23 18:08 | 59.64043 | 17.93643 | 111 ft | 25 kts | 238° |
| 2026-04-23 18:08 | 59.63991 | 17.93323 | 110 ft | 25 kts | 281° |
| 2026-04-23 18:09 | 59.64065 | 17.93008 | 110 ft | 25 kts | 297° |
| 2026-04-23 18:09 | 59.64145 | 17.92703 | 113 ft | 25 kts | 297° |
| 2026-04-23 18:09 | 59.64225 | 17.92401 | 115 ft | 24 kts | 297° |
| 2026-04-23 18:09 | 59.64303 | 17.92104 | 114 ft | 25 kts | 297° |
| 2026-04-23 18:10 | 59.64386 | 17.91922 | 111 ft | 16 kts | 1° |
| 2026-04-23 18:10 | 59.64502 | 17.91964 | 111 ft | 18 kts | 11° |
| 2026-04-23 18:10 | 59.64650 | 17.92017 | 108 ft | 25 kts | 10° |
| 2026-04-23 18:10 | 59.64829 | 17.92080 | 107 ft | 27 kts | 10° |
| 2026-04-23 18:11 | 59.65010 | 17.92147 | 107 ft | 26 kts | 11° |
| 2026-04-23 18:11 | 59.65169 | 17.92206 | 107 ft | 23 kts | 12° |
| 2026-04-23 18:11 | 59.65330 | 17.92265 | 105 ft | 25 kts | 9° |
| 2026-04-23 18:11 | 59.65474 | 17.92430 | 105 ft | 25 kts | 44° |
| 2026-04-23 18:12 | 59.65545 | 17.92729 | 108 ft | 24 kts | 76° |
| 2026-04-23 18:12 | 59.65536 | 17.92904 | 110 ft | 8 kts | 152° |
| 2026-04-23 18:12 | 59.65479 | 17.92936 | 111 ft | 9 kts | 166° |
| 2026-04-23 18:12 | 59.65434 | 17.92999 | 112 ft | 8 kts | 104° |
| 2026-04-23 18:13 | 59.65417 | 17.93049 | 111 ft | 4 kts | 162° |
| 2026-04-23 18:13 | 59.65395 | 17.93041 | 112 ft | 2 kts | 191° |
| 2026-04-23 18:13 | 59.65388 | 17.93039 | 112 ft | 0 kts | 190° |